Time;durP1;ratioP1;P1;durP2;ratioP2;P2;SDS_P1;SDS_P2;PMS_P1;PMS_P2;Temp;Humidity;BMP_temperature;BMP_pressure;BME280_temperature;BME280_humidity;BME280_pressure;Samples;Min_cycle;Max_cycle;Signal;HPM_P1;HPM_P2
2023/08/21 00:01:20;;;;;;;10.90;9.25;;;25.20;74.00;;;;;;5033740;28;20030;-86
2023/08/21 00:03:45;;;;;;;9.90;8.32;;;25.20;74.30;;;;;;5050092;28;20025;-85
2023/08/21 00:06:11;;;;;;;10.25;8.65;;;25.10;74.30;;;;;;5034835;28;20028;-86
2023/08/21 00:08:37;;;;;;;12.32;9.68;;;25.10;74.40;;;;;;5033325;28;20025;-86
2023/08/21 00:11:03;;;;;;;10.98;9.50;;;25.10;74.30;;;;;;5034587;28;20040;-86
2023/08/21 00:13:28;;;;;;;10.80;9.30;;;25.10;73.80;;;;;;5033343;28;20113;-86
2023/08/21 00:15:55;;;;;;;10.80;9.10;;;25.00;74.00;;;;;;5050218;28;20030;-86
2023/08/21 00:18:21;;;;;;;11.15;9.30;;;25.00;73.80;;;;;;5034551;28;20021;-85
2023/08/21 00:20:46;;;;;;;9.70;8.57;;;25.00;73.80;;;;;;5034610;28;20112;-85
2023/08/21 00:23:12;;;;;;;11.07;8.85;;;25.00;73.40;;;;;;5033082;28;20456;-86
2023/08/21 00:25:38;;;;;;;11.13;9.25;;;25.00;73.30;;;;;;5049661;28;20033;-86
2023/08/21 00:28:04;;;;;;;10.75;9.65;;;25.00;73.00;;;;;;5035005;28;20108;-86
2023/08/21 00:30:29;;;;;;;10.52;9.45;;;25.00;73.30;;;;;;5049538;28;20423;-86
2023/08/21 00:32:55;;;;;;;12.45;9.52;;;25.00;73.50;;;;;;5033092;28;20025;-86
2023/08/21 00:35:21;;;;;;;11.23;9.18;;;25.00;73.50;;;;;;5049333;28;20151;-86
2023/08/21 00:37:46;;;;;;;9.95;8.95;;;24.90;73.60;;;;;;5034222;28;20532;-85
2023/08/21 00:40:12;;;;;;;11.00;8.70;;;24.90;73.60;;;;;;5034405;28;20082;-86
2023/08/21 00:42:38;;;;;;;9.18;8.27;;;24.90;73.90;;;;;;5034262;28;20029;-86
2023/08/21 00:45:04;;;;;;;10.60;9.15;;;24.90;73.90;;;;;;5034193;28;20022;-86
2023/08/21 00:47:30;;;;;;;10.48;9.45;;;24.90;73.40;;;;;;5034021;28;20527;-85
2023/08/21 00:49:56;;;;;;;11.65;8.77;;;24.90;73.10;;;;;;5049101;28;20041;-86
2023/08/21 00:52:22;;;;;;;10.05;9.02;;;24.90;72.80;;;;;;5049263;28;20032;-86
2023/08/21 00:54:49;;;;;;;9.45;8.50;;;24.90;72.60;;;;;;5032534;28;20026;-86
2023/08/21 00:57:15;;;;;;;9.30;8.40;;;24.90;72.50;;;;;;5049001;28;20025;-86
2023/08/21 00:59:41;;;;;;;10.18;8.73;;;24.90;72.60;;;;;;5034079;28;20469;-86
2023/08/21 01:02:07;;;;;;;9.60;8.60;;;24.90;72.70;;;;;;5033268;28;20030;-85
2023/08/21 01:04:32;;;;;;;9.60;8.35;;;25.00;72.80;;;;;;5048977;28;20449;-86
2023/08/21 01:06:58;;;;;;;11.60;9.63;;;25.00;73.00;;;;;;5032256;28;20029;-86
2023/08/21 01:09:36;;;;;;;13.35;9.40;;;25.00;73.60;;;;;;5049200;28;20083;-86
2023/08/21 01:12:23;;;;;;;9.77;8.73;;;25.00;73.30;;;;;;5033740;28;20026;-86
2023/08/21 01:14:49;;;;;;;10.13;9.13;;;25.00;73.50;;;;;;5048705;28;20095;-86
2023/08/21 01:17:17;;;;;;;9.98;8.88;;;24.90;73.60;;;;;;5048792;28;20385;-86
2023/08/21 01:19:49;;;;;;;10.70;9.23;;;24.90;73.60;;;;;;5033560;28;20481;-86
2023/08/21 01:22:14;;;;;;;10.25;9.10;;;25.00;73.80;;;;;;5032110;28;20075;-86
2023/08/21 01:24:40;;;;;;;10.52;9.25;;;24.90;73.80;;;;;;5031989;28;20025;-86
2023/08/21 01:27:06;;;;;;;10.98;9.88;;;25.00;74.00;;;;;;5033695;28;20030;-85
2023/08/21 01:29:33;;;;;;;13.13;10.05;;;24.90;74.30;;;;;;5033244;28;20108;-86
2023/08/21 01:32:07;;;;;;;12.57;9.40;;;25.00;74.50;;;;;;5033206;28;20028;-85
2023/08/21 01:34:34;;;;;;;10.35;9.20;;;24.90;74.60;;;;;;5033223;28;20416;-86
2023/08/21 01:37:04;;;;;;;10.35;9.35;;;24.90;74.80;;;;;;5031703;28;20042;-85
2023/08/21 01:39:29;;;;;;;11.07;10.03;;;25.00;75.10;;;;;;5048420;28;20116;-86
2023/08/21 01:41:56;;;;;;;10.70;9.65;;;24.90;75.20;;;;;;5033186;28;20108;-85
2023/08/21 01:44:22;;;;;;;10.63;9.52;;;24.90;75.50;;;;;;5033024;28;20105;-86
2023/08/21 01:46:48;;;;;;;13.43;11.93;;;24.90;75.70;;;;;;5031690;28;20128;-85
2023/08/21 01:49:13;;;;;;;11.52;10.40;;;25.00;75.90;;;;;;5031622;28;20125;-86
2023/08/21 01:51:39;;;;;;;11.10;9.90;;;25.00;75.90;;;;;;5032801;28;20132;-86
2023/08/21 01:54:05;;;;;;;11.07;9.93;;;25.00;76.10;;;;;;5048187;28;20021;-86
2023/08/21 01:56:30;;;;;;;11.38;10.18;;;25.00;76.30;;;;;;5032854;28;20068;-86
2023/08/21 01:58:56;;;;;;;11.68;9.75;;;24.90;76.40;;;;;;5031554;28;20132;-86
2023/08/21 02:01:23;;;;;;;11.10;10.00;;;24.90;76.50;;;;;;5032714;28;20033;-85
2023/08/21 02:03:49;;;;;;;15.32;10.48;;;24.90;76.70;;;;;;5031312;28;20076;-85
2023/08/21 02:06:22;;;;;;;11.40;10.20;;;24.90;77.00;;;;;;5032641;28;20421;-86
2023/08/21 02:08:51;;;;;;;11.95;10.70;;;24.90;77.40;;;;;;5048161;28;20032;-86
2023/08/21 02:11:17;;;;;;;13.90;11.60;;;24.90;77.60;;;;;;5031413;28;20026;-86
2023/08/21 02:13:42;;;;;;;14.10;11.00;;;24.80;77.90;;;;;;5030714;28;20048;-85
2023/08/21 02:16:08;;;;;;;12.80;11.32;;;24.80;78.30;;;;;;5031977;28;20072;-86
2023/08/21 02:18:34;;;;;;;13.20;11.55;;;24.80;78.70;;;;;;5032247;28;20025;-86
2023/08/21 02:21:03;;;;;;;13.90;12.20;;;24.80;79.10;;;;;;5047762;28;20069;-85
2023/08/21 02:23:29;;;;;;;13.13;11.63;;;24.80;79.40;;;;;;5032362;28;20488;-86
2023/08/21 02:25:55;;;;;;;13.07;11.45;;;24.80;79.80;;;;;;5032200;28;20473;-86
2023/08/21 02:28:21;;;;;;;13.63;11.95;;;24.80;80.20;;;;;;5047395;28;20026;-85
2023/08/21 02:30:47;;;;;;;13.75;12.20;;;24.80;80.30;;;;;;5047450;28;20026;-86
2023/08/21 02:33:13;;;;;;;15.27;12.48;;;24.80;80.30;;;;;;5032047;28;20025;-85
2023/08/21 02:35:39;;;;;;;13.82;12.45;;;24.80;80.40;;;;;;5030781;28;20034;-86
2023/08/21 02:38:04;;;;;;;14.90;12.75;;;24.70;80.50;;;;;;5030737;28;20033;-86
2023/08/21 02:40:30;;;;;;;15.75;12.88;;;24.70;80.80;;;;;;5047526;28;20021;-86
2023/08/21 02:42:56;;;;;;;14.60;13.02;;;24.70;81.00;;;;;;5047416;28;20026;-86
2023/08/21 02:45:22;;;;;;;14.45;13.05;;;24.70;81.10;;;;;;5030504;28;20586;-85
2023/08/21 02:47:47;;;;;;;13.93;12.48;;;24.70;81.30;;;;;;5030619;28;20116;-86
2023/08/21 02:50:13;;;;;;;14.40;12.90;;;24.60;81.40;;;;;;5031888;28;20120;-85
2023/08/21 02:52:39;;;;;;;14.80;13.30;;;24.60;81.50;;;;;;5031856;28;20125;-86
2023/08/21 02:55:05;;;;;;;15.57;13.45;;;24.60;82.40;;;;;;5031736;28;20505;-86
2023/08/21 02:57:31;;;;;;;14.88;13.40;;;24.60;81.90;;;;;;5030603;28;20116;-85
2023/08/21 02:59:57;;;;;;;14.80;12.68;;;24.60;82.20;;;;;;5032011;28;20164;-86
2023/08/21 03:02:23;;;;;;;14.70;13.20;;;24.50;82.30;;;;;;5030681;28;20025;-86
2023/08/21 03:04:49;;;;;;;16.27;13.80;;;24.50;82.30;;;;;;5031965;28;20056;-85
2023/08/21 03:07:15;;;;;;;14.65;13.10;;;24.50;82.50;;;;;;5031590;28;20131;-85
2023/08/21 03:09:41;;;;;;;14.95;13.25;;;24.50;82.90;;;;;;5030286;28;20063;-86
2023/08/21 03:12:08;;;;;;;15.38;13.00;;;24.50;83.20;;;;;;5046894;28;20067;-86
2023/08/21 03:14:34;;;;;;;15.43;13.75;;;24.50;83.00;;;;;;5030333;28;20044;-86
2023/08/21 03:17:00;;;;;;;14.35;12.85;;;24.50;83.00;;;;;;5031321;28;20021;-86
2023/08/21 03:19:25;;;;;;;14.73;13.30;;;24.50;83.00;;;;;;5030094;28;20022;-85
2023/08/21 03:21:51;;;;;;;14.88;13.48;;;24.50;82.90;;;;;;5030037;28;20389;-86
2023/08/21 03:24:17;;;;;;;15.52;13.93;;;24.50;82.80;;;;;;5031384;28;20022;-86
2023/08/21 03:26:43;;;;;;;16.15;14.13;;;24.50;82.90;;;;;;5032648;28;20025;-86
2023/08/21 03:29:09;;;;;;;14.15;12.82;;;24.50;83.00;;;;;;5034258;28;20030;-86
2023/08/21 03:31:35;;;;;;;14.57;13.02;;;24.60;82.90;;;;;;5050848;28;20036;-86
2023/08/21 03:34:00;;;;;;;15.52;13.50;;;24.60;83.00;;;;;;5035337;28;20029;-86
2023/08/21 03:36:32;;;;;;;15.43;13.48;;;24.60;82.90;;;;;;5035172;28;20045;-85
2023/08/21 03:39:01;;;;;;;14.52;13.10;;;24.60;82.70;;;;;;5033966;28;20021;-85
2023/08/21 03:41:27;;;;;;;14.70;13.30;;;24.70;82.80;;;;;;5034967;28;20037;-85
2023/08/21 03:43:53;;;;;;;14.60;13.02;;;24.70;82.70;;;;;;5035218;28;20025;-86
2023/08/21 03:46:19;;;;;;;15.15;13.32;;;24.70;82.60;;;;;;5035155;28;20025;-86
2023/08/21 03:48:45;;;;;;;14.98;13.38;;;24.80;82.60;;;;;;5050473;28;20026;-86
2023/08/21 03:51:11;;;;;;;16.27;13.50;;;24.80;82.60;;;;;;5033702;28;20034;-86
2023/08/21 03:53:36;;;;;;;14.25;12.85;;;24.80;82.50;;;;;;5035313;28;20047;-86
2023/08/21 03:56:02;;;;;;;14.07;12.57;;;24.80;82.40;;;;;;5050379;28;20033;-86
2023/08/21 03:58:28;;;;;;;13.77;12.45;;;24.80;82.20;;;;;;5034955;28;20033;-86
2023/08/21 04:00:54;;;;;;;14.63;13.23;;;24.90;82.10;;;;;;5033638;28;20087;-86
2023/08/21 04:03:20;;;;;;;16.13;13.02;;;25.00;81.90;;;;;;5034858;28;20029;-86
2023/08/21 04:05:46;;;;;;;13.57;12.38;;;25.00;81.90;;;;;;5034999;28;20025;-86
2023/08/21 04:08:12;;;;;;;14.27;12.88;;;25.00;81.70;;;;;;5034897;28;20051;-86
2023/08/21 04:10:38;;;;;;;14.90;13.48;;;25.10;81.40;;;;;;5034588;28;20390;-86
2023/08/21 04:13:04;;;;;;;13.48;11.95;;;25.20;81.00;;;;;;5034570;28;20013;-86
2023/08/21 04:15:31;;;;;;;15.88;12.70;;;25.20;80.60;;;;;;5033250;28;20029;-85
2023/08/21 04:17:56;;;;;;;13.50;11.55;;;25.30;80.20;;;;;;5031527;28;20492;-86
2023/08/21 04:20:22;;;;;;;15.15;13.05;;;25.40;80.20;;;;;;5032699;28;20060;-85
2023/08/21 04:22:49;;;;;;;13.38;12.18;;;25.50;80.30;;;;;;5032498;28;20033;-86
2023/08/21 04:25:15;;;;;;;16.55;13.07;;;25.60;80.20;;;;;;5032480;28;20044;-86
2023/08/21 04:27:42;;;;;;;13.75;12.40;;;25.60;79.90;;;;;;5031427;28;20030;-86
2023/08/21 04:30:08;;;;;;;14.45;12.95;;;25.70;79.60;;;;;;5031799;28;20033;-86
2023/08/21 04:32:34;;;;;;;15.73;13.45;;;25.80;79.50;;;;;;5031681;28;20022;-85
2023/08/21 04:35:00;;;;;;;15.05;12.98;;;25.80;79.50;;;;;;5033777;28;20022;-84
2023/08/21 04:37:25;;;;;;;14.30;12.80;;;25.80;79.50;;;;;;5032777;28;20103;-83
2023/08/21 04:39:52;;;;;;;14.80;13.32;;;25.90;79.90;;;;;;5032189;28;20427;-83
2023/08/21 04:42:17;;;;;;;13.80;12.50;;;25.90;80.20;;;;;;5033995;28;20104;-86
2023/08/21 04:44:43;;;;;;;14.65;13.13;;;26.20;80.20;;;;;;5055200;28;20061;-86
2023/08/21 04:47:23;;;;;;;14.63;13.10;;;26.40;79.60;;;;;;5038732;28;20071;-86
2023/08/21 04:49:50;;;;;;;15.20;13.80;;;26.60;78.80;;;;;;5037668;28;20036;-86
2023/08/21 04:52:16;;;;;;;13.55;12.25;;;26.70;78.40;;;;;;5039190;28;20406;-86
2023/08/21 04:54:41;;;;;;;15.77;12.70;;;26.80;78.30;;;;;;5037527;28;20033;-86
2023/08/21 04:57:07;;;;;;;14.70;13.38;;;26.80;78.20;;;;;;5040978;28;20042;-86
2023/08/21 04:59:33;;;;;;;14.45;13.00;;;26.80;78.10;;;;;;5042418;28;20406;-87
2023/08/21 05:01:58;;;;;;;13.85;12.45;;;26.80;78.10;;;;;;5058858;28;20439;-87
2023/08/21 05:04:24;;;;;;;14.35;12.82;;;26.80;78.10;;;;;;5059774;28;20501;-86
2023/08/21 05:06:50;;;;;;;14.40;12.55;;;26.80;78.40;;;;;;5041568;28;20036;-87
2023/08/21 05:09:15;;;;;;;14.73;13.15;;;26.80;78.30;;;;;;5042730;28;20030;-87
2023/08/21 05:11:41;;;;;;;15.20;13.65;;;26.80;78.20;;;;;;5041818;28;20473;-87
2023/08/21 05:14:07;;;;;;;14.50;13.00;;;26.80;78.10;;;;;;5041434;28;20021;-86
2023/08/21 05:16:33;;;;;;;14.93;13.43;;;26.90;78.20;;;;;;5039028;28;20024;-86
2023/08/21 05:18:59;;;;;;;13.90;12.50;;;26.90;78.40;;;;;;5038952;28;20021;-86
2023/08/21 05:21:24;;;;;;;13.93;12.63;;;27.10;78.40;;;;;;5038968;28;20083;-86
2023/08/21 05:23:50;;;;;;;13.60;12.23;;;27.20;78.10;;;;;;5039412;28;20093;-86
2023/08/21 05:26:16;;;;;;;14.25;12.85;;;27.30;78.00;;;;;;5038973;28;20021;-87
2023/08/21 05:28:41;;;;;;;13.80;12.35;;;27.40;77.80;;;;;;5029492;28;20057;-87
2023/08/21 05:31:07;;;;;;;12.80;11.60;;;27.50;77.30;;;;;;5021350;28;20065;-86
2023/08/21 05:33:32;;;;;;;14.18;12.63;;;27.60;76.40;;;;;;5009628;28;20382;-86
2023/08/21 05:35:58;;;;;;;13.23;12.02;;;27.60;76.00;;;;;;5013226;28;20052;-86
2023/08/21 05:38:24;;;;;;;13.82;12.45;;;27.60;75.70;;;;;;5015214;28;20036;-86
2023/08/21 05:40:49;;;;;;;13.93;12.57;;;27.50;75.70;;;;;;5013470;28;20025;-86
2023/08/21 05:43:16;;;;;;;13.88;12.48;;;27.50;75.90;;;;;;5031989;28;20056;-86
2023/08/21 05:45:42;;;;;;;13.73;12.38;;;27.50;76.20;;;;;;5027612;28;20034;-86
2023/08/21 05:48:08;;;;;;;13.05;11.85;;;27.40;76.40;;;;;;5015267;28;20034;-86
2023/08/21 05:50:36;;;;;;;14.73;12.05;;;27.40;76.50;;;;;;5032823;28;20038;-86
2023/08/21 05:53:06;;;;;;;12.98;11.68;;;27.30;76.30;;;;;;5013806;28;20025;-86
2023/08/21 05:55:32;;;;;;;13.85;12.38;;;27.30;76.20;;;;;;5010194;28;20033;-86
2023/08/21 05:57:58;;;;;;;14.27;12.88;;;27.30;76.30;;;;;;5016987;28;20021;-86
2023/08/21 06:00:24;;;;;;;15.90;12.70;;;27.30;76.50;;;;;;5014609;28;20033;-86
2023/08/21 06:02:49;;;;;;;14.40;12.90;;;27.30;76.70;;;;;;5029716;28;20049;-86
2023/08/21 06:05:15;;;;;;;14.80;13.38;;;27.30;76.90;;;;;;5032134;28;20037;-86
2023/08/21 06:07:41;;;;;;;14.45;13.05;;;27.30;77.20;;;;;;5027901;28;20030;-86
2023/08/21 06:10:08;;;;;;;15.93;13.10;;;27.40;77.30;;;;;;5013180;28;20030;-86
2023/08/21 06:12:34;;;;;;;15.95;13.23;;;27.40;77.20;;;;;;5013110;28;20096;-90
2023/08/21 06:14:59;;;;;;;14.77;13.13;;;27.50;77.40;;;;;;5010930;28;20029;-89
2023/08/21 06:17:27;;;;;;;13.95;12.55;;;27.50;77.60;;;;;;5006783;28;20080;-89
2023/08/21 06:19:53;;;;;;;13.77;12.50;;;27.50;77.40;;;;;;5026474;28;20025;-89
2023/08/21 06:22:18;;;;;;;14.40;13.00;;;27.60;77.60;;;;;;5001610;28;20509;-89
2023/08/21 06:24:44;;;;;;;14.77;13.27;;;27.60;77.60;;;;;;5014338;28;20501;-88
2023/08/21 06:27:10;;;;;;;13.73;12.43;;;27.70;77.60;;;;;;5016820;28;20097;-89
2023/08/21 06:29:37;;;;;;;14.52;13.02;;;27.70;77.60;;;;;;5020513;28;20040;-91
2023/08/21 06:32:03;;;;;;;13.95;12.65;;;27.70;77.70;;;;;;5036577;28;20041;-90
2023/08/21 06:34:29;;;;;;;14.20;12.80;;;27.80;77.40;;;;;;5036572;28;20034;-89
2023/08/21 06:36:54;;;;;;;14.13;12.63;;;27.80;77.30;;;;;;5028114;28;20045;-88
2023/08/21 06:39:20;;;;;;;14.27;12.90;;;27.80;77.60;;;;;;5015824;28;20028;-88
2023/08/21 06:41:46;;;;;;;14.82;13.30;;;27.80;77.40;;;;;;5017748;28;20539;-88
2023/08/21 06:44:11;;;;;;;14.15;12.73;;;27.90;77.30;;;;;;5026594;28;20033;-90
2023/08/21 06:46:37;;;;;;;13.38;12.18;;;27.90;77.50;;;;;;5023561;28;20057;-89
2023/08/21 06:49:03;;;;;;;14.45;13.15;;;28.00;77.50;;;;;;5028603;28;20188;-88
2023/08/21 06:51:29;;;;;;;13.70;12.50;;;28.00;77.50;;;;;;5034477;28;21187;-87
2023/08/21 06:53:55;;;;;;;14.30;12.80;;;28.00;77.10;;;;;;5032608;28;20029;-88
2023/08/21 06:56:23;;;;;;;14.15;12.02;;;28.00;77.30;;;;;;5013967;28;20121;-88
2023/08/21 06:58:50;;;;;;;15.13;13.55;;;28.10;76.90;;;;;;5034295;28;20546;-88
2023/08/21 07:01:15;;;;;;;14.35;12.90;;;28.10;76.60;;;;;;5014139;28;20559;-88
2023/08/21 07:03:41;;;;;;;14.15;12.70;;;28.10;76.30;;;;;;5017044;28;20030;-88
2023/08/21 07:06:08;;;;;;;13.52;12.00;;;28.10;75.90;;;;;;5013317;28;20034;-88
2023/08/21 07:08:33;;;;;;;13.45;12.23;;;28.20;76.00;;;;;;5013076;28;20497;-89
2023/08/21 07:11:03;;;;;;;13.13;11.93;;;28.20;75.80;;;;;;5012424;28;20024;-88
2023/08/21 07:13:29;;;;;;;14.57;12.68;;;28.20;75.80;;;;;;5021413;28;20085;-88
2023/08/21 07:15:55;;;;;;;13.35;12.05;;;28.20;75.50;;;;;;5008477;28;20057;-87
2023/08/21 07:18:21;;;;;;;13.40;12.10;;;28.30;75.90;;;;;;5009044;28;20040;-86
2023/08/21 07:20:46;;;;;;;12.73;11.52;;;28.30;75.90;;;;;;5031709;28;20034;-86
2023/08/21 07:23:17;;;;;;;14.38;12.88;;;28.30;75.90;;;;;;5023178;28;20034;-88
2023/08/21 07:25:42;;;;;;;;;;;28.40;75.80;;;;;;5032275;28;20022;-87
2023/08/21 07:28:10;;;;;;;12.68;11.60;;;28.30;75.80;;;;;;5018706;28;19917;-86
2023/08/21 07:30:38;;;;;;;13.50;12.30;;;28.30;75.90;;;;;;5031157;28;20034;-87
2023/08/21 07:33:17;;;;;;;13.35;12.13;;;28.40;76.30;;;;;;5018434;28;20025;-87
2023/08/21 07:35:44;;;;;;;12.70;11.60;;;28.40;75.90;;;;;;5012854;28;20070;-88
2023/08/21 07:38:12;;;;;;;13.25;11.95;;;28.50;75.80;;;;;;5010441;28;20053;-90
2023/08/21 07:40:40;;;;;;;12.80;11.50;;;28.50;76.10;;;;;;5020018;28;20029;-90
2023/08/21 07:43:05;;;;;;;13.50;12.10;;;28.50;75.20;;;;;;5009284;28;20025;-89
2023/08/21 07:45:31;;;;;;;12.70;11.60;;;28.60;76.00;;;;;;5007956;28;20040;-86
2023/08/21 07:47:57;;;;;;;13.23;11.93;;;28.60;76.00;;;;;;5005096;28;20030;-86
2023/08/21 07:50:23;;;;;;;12.80;11.60;;;28.60;75.20;;;;;;5019411;28;20121;-86
2023/08/21 07:52:48;;;;;;;12.63;11.50;;;28.60;75.30;;;;;;5002498;28;20068;-86
2023/08/21 07:55:14;;;;;;;12.60;11.45;;;28.60;75.30;;;;;;4985440;28;20030;-87
2023/08/21 07:57:40;;;;;;;12.18;10.98;;;28.60;74.90;;;;;;5020215;28;20041;-86
2023/08/21 08:00:08;;;;;;;12.43;11.32;;;28.70;74.80;;;;;;5030142;28;20033;-86
2023/08/21 08:02:34;;;;;;;13.18;11.93;;;28.70;74.80;;;;;;5014758;28;20029;-86
2023/08/21 08:05:03;;;;;;;12.50;11.40;;;28.70;74.40;;;;;;5019092;28;20424;-88
2023/08/21 08:07:28;;;;;;;13.38;11.98;;;28.70;74.30;;;;;;5016765;28;20052;-88
2023/08/21 08:09:54;;;;;;;12.18;10.98;;;28.70;74.30;;;;;;5016298;28;20026;-90
2023/08/21 08:12:24;;;;;;;13.18;11.95;;;28.70;74.30;;;;;;5011943;28;20033;-88
2023/08/21 08:14:50;;;;;;;;;;;28.70;74.00;;;;;;5032731;28;20017;-88
2023/08/21 08:17:16;;;;;;;12.25;11.05;;;28.70;74.10;;;;;;5016102;28;19921;-87
2023/08/21 08:19:41;;;;;;;12.35;11.23;;;28.70;74.10;;;;;;5013217;28;20034;-89
2023/08/21 08:22:07;;;;;;;13.23;11.85;;;28.70;73.80;;;;;;5011338;28;20124;-90
2023/08/21 08:24:33;;;;;;;11.55;10.55;;;28.70;73.70;;;;;;5010345;28;20030;-89
2023/08/21 08:26:58;;;;;;;11.80;10.75;;;28.70;74.00;;;;;;5026682;28;20034;-90
2023/08/21 08:29:24;;;;;;;12.38;11.27;;;28.70;73.50;;;;;;5007812;28;20041;-88
2023/08/21 08:31:50;;;;;;;13.38;12.18;;;28.70;73.40;;;;;;5015802;28;20510;-90
2023/08/21 08:34:22;;;;;;;13.30;12.02;;;28.60;73.20;;;;;;5029169;28;20080;-89
2023/08/21 08:36:48;;;;;;;11.80;10.73;;;28.60;73.20;;;;;;5008918;28;20058;-90
2023/08/21 08:39:13;;;;;;;13.38;12.00;;;28.60;73.30;;;;;;5016557;28;20030;-88
2023/08/21 08:42:02;;;;;;;12.52;11.43;;;28.60;73.30;;;;;;5019597;28;20121;-90
2023/08/21 08:44:30;;;;;;;12.68;11.38;;;28.60;73.20;;;;;;5022227;28;20030;-90
2023/08/21 08:46:56;;;;;;;12.85;11.32;;;28.60;73.50;;;;;;5030910;28;20029;-91
2023/08/21 08:49:25;;;;;;;12.77;11.45;;;28.50;73.10;;;;;;5047024;28;20036;-89
2023/08/21 08:51:51;;;;;;;13.32;12.15;;;28.50;73.20;;;;;;5032238;28;20045;-90
2023/08/21 08:54:27;;;;;;;13.02;11.48;;;28.50;73.10;;;;;;5036276;28;20014;-91
2023/08/21 08:56:53;;;;;;;13.10;11.80;;;28.50;73.00;;;;;;5033748;28;20038;-90
2023/08/21 08:59:19;;;;;;;13.73;12.30;;;28.50;72.90;;;;;;5004769;28;20038;-90
2023/08/21 09:01:45;;;;;;;12.93;11.70;;;28.50;73.10;;;;;;5018684;28;20030;-92
2023/08/21 09:04:15;;;;;;;14.13;12.68;;;28.50;73.00;;;;;;5022500;28;20033;-92
2023/08/21 09:06:41;;;;;;;14.00;12.70;;;28.50;73.20;;;;;;5026616;28;20053;-91
2023/08/21 09:09:08;;;;;;;13.48;12.18;;;28.40;73.20;;;;;;5024405;28;20035;-91
2023/08/21 09:11:35;;;;;;;12.70;11.60;;;28.40;72.90;;;;;;5040583;28;20038;-91
2023/08/21 09:14:05;;;;;;;13.88;12.57;;;28.40;72.90;;;;;;5042448;23;20130;-79
2023/08/21 09:16:30;;;;;;;11.65;10.55;;;28.40;73.00;;;;;;4996209;28;20030;-82
2023/08/21 09:18:56;;;;;;;12.63;11.43;;;28.40;73.00;;;;;;5002069;28;20033;-80
2023/08/21 09:21:24;;;;;;;14.45;13.05;;;28.40;73.00;;;;;;5005028;28;20116;-80
2023/08/21 09:23:58;;;;;;;13.15;11.85;;;28.40;73.00;;;;;;5001940;28;20054;-80
2023/08/21 09:26:24;;;;;;;12.52;11.43;;;28.40;72.90;;;;;;5004686;28;20525;-81
2023/08/21 09:28:51;;;;;;;12.88;11.57;;;28.40;72.90;;;;;;4994342;28;20040;-81
2023/08/21 09:31:37;;;;;;;12.70;11.40;;;28.40;73.10;;;;;;5013718;28;20054;-79
2023/08/21 09:34:07;;;;;;;11.68;10.68;;;28.40;72.90;;;;;;5001749;28;20042;-81
2023/08/21 09:36:33;;;;;;;13.77;10.35;;;28.40;72.70;;;;;;5013094;28;20026;-81
2023/08/21 09:39:00;;;;;;;11.63;10.43;;;28.40;72.40;;;;;;4992813;28;20418;-77
2023/08/21 09:41:26;;;;;;;10.38;9.48;;;28.40;72.40;;;;;;4990257;28;20552;-77
2023/08/21 09:43:52;;;;;;;10.63;9.63;;;28.40;71.90;;;;;;5009550;28;20103;-78
2023/08/21 09:46:25;;;;;;;10.60;9.60;;;28.40;72.00;;;;;;4990402;28;20121;-83
2023/08/21 09:48:52;;;;;;;11.02;10.02;;;28.40;72.20;;;;;;5009285;28;20023;-79
2023/08/21 09:51:18;;;;;;;11.20;10.10;;;28.40;72.10;;;;;;4994697;28;20030;-79
2023/08/21 09:53:45;;;;;;;10.63;9.68;;;28.40;72.50;;;;;;4993248;28;20839;-80
2023/08/21 09:56:12;;;;;;;10.27;9.38;;;28.40;72.40;;;;;;4998677;28;20045;-81
2023/08/21 09:58:38;;;;;;;9.60;8.73;;;28.40;72.20;;;;;;5003608;28;20030;-81
2023/08/21 10:01:14;;;;;;;11.00;9.98;;;28.40;72.20;;;;;;5001352;28;20037;-80
2023/08/21 10:03:41;;;;;;;9.48;8.57;;;28.40;72.40;;;;;;4996315;28;20034;-80
2023/08/21 10:06:09;;;;;;;10.95;9.35;;;28.40;72.00;;;;;;5015158;28;20030;-80
2023/08/21 10:08:41;;;;;;;9.57;8.68;;;28.40;71.90;;;;;;5000097;28;20026;-84
2023/08/21 10:11:08;;;;;;;9.55;8.65;;;28.40;71.50;;;;;;4998441;28;20056;-82
2023/08/21 10:13:36;;;;;;;10.68;8.60;;;28.40;71.90;;;;;;4993798;28;20473;-78
2023/08/21 10:16:11;;;;;;;9.32;8.52;;;28.40;71.00;;;;;;4988794;28;20039;-87
2023/08/21 10:19:15;;;;;;;10.02;9.13;;;28.40;71.20;;;;;;5005793;28;20053;-89
2023/08/21 10:22:16;;;;;;;9.40;8.60;;;28.40;71.00;;;;;;5015979;28;20011;-90
2023/08/21 10:24:46;;;;;;;10.05;9.13;;;28.40;71.10;;;;;;5015731;23;20047;-56
2023/08/21 10:27:12;;;;;;;10.00;9.10;;;28.40;71.20;;;;;;5002212;28;20061;-54
2023/08/21 10:29:38;;;;;;;10.38;9.38;;;28.40;71.30;;;;;;4993696;28;20114;-56
2023/08/21 10:32:05;;;;;;;10.02;9.02;;;28.50;71.10;;;;;;4994715;28;20030;-53
2023/08/21 10:34:37;;;;;;;9.75;8.85;;;28.50;71.20;;;;;;5005776;28;20026;-54
2023/08/21 10:37:06;;;;;;;9.07;8.18;;;28.50;71.20;;;;;;4999155;28;20018;-54
2023/08/21 10:39:33;;;;;;;9.45;8.63;;;28.50;71.60;;;;;;5004373;28;20037;-54
2023/08/21 10:42:09;;;;;;;10.52;9.52;;;28.50;72.00;;;;;;5007893;28;20072;-54
2023/08/21 10:44:55;;;;;;;10.45;9.48;;;28.50;72.10;;;;;;4999051;28;20067;-54
2023/08/21 10:47:32;;;;;;;10.45;9.45;;;28.60;72.00;;;;;;4995902;28;20426;-53
2023/08/21 10:50:05;;;;;;;10.68;9.60;;;28.50;71.80;;;;;;5004209;28;20037;-54
2023/08/21 10:52:43;;;;;;;10.95;9.07;;;28.60;71.60;;;;;;4996450;28;20113;-54
2023/08/21 10:55:09;;;;;;;10.00;9.10;;;28.60;71.40;;;;;;4998021;28;20072;-54
2023/08/21 10:57:35;;;;;;;10.40;9.40;;;28.60;71.30;;;;;;4999307;28;20481;-54
2023/08/21 11:00:09;;;;;;;9.77;8.77;;;28.60;70.90;;;;;;4994612;28;20036;-55
2023/08/21 11:02:36;;;;;;;9.75;8.43;;;28.60;70.80;;;;;;5006304;28;20026;-55
2023/08/21 11:05:04;;;;;;;10.93;9.13;;;28.60;70.50;;;;;;5002524;28;20069;-54
2023/08/21 11:07:36;;;;;;;9.35;8.18;;;28.60;70.30;;;;;;5004893;28;20451;-55
2023/08/21 11:10:02;;;;;;;8.85;8.05;;;28.60;70.30;;;;;;5008718;28;20026;-53
2023/08/21 11:12:28;;;;;;;8.98;8.18;;;28.60;70.50;;;;;;5000910;28;20033;-55
2023/08/21 11:14:54;;;;;;;9.65;8.75;;;28.60;70.40;;;;;;5008284;28;20030;-55
2023/08/21 11:17:19;;;;;;;9.50;8.55;;;28.70;70.40;;;;;;5007668;28;20042;-55
2023/08/21 11:19:46;;;;;;;8.98;8.18;;;28.70;70.20;;;;;;4997015;28;20375;-55
2023/08/21 11:22:12;;;;;;;9.85;8.73;;;28.70;69.80;;;;;;5002647;28;20026;-55
2023/08/21 11:24:38;;;;;;;9.90;9.02;;;28.60;69.40;;;;;;5000451;28;20046;-55
2023/08/21 11:27:12;;;;;;;9.93;9.05;;;28.60;69.50;;;;;;5004067;28;20108;-53
2023/08/21 11:29:39;;;;;;;10.10;9.20;;;28.60;69.60;;;;;;4993237;28;20505;-54
2023/08/21 11:32:09;;;;;;;9.40;8.50;;;28.60;69.60;;;;;;5003923;28;20033;-55
2023/08/21 11:34:35;;;;;;;9.55;8.68;;;28.60;69.90;;;;;;5007494;28;20037;-55
2023/08/21 11:37:01;;;;;;;9.88;8.88;;;28.60;70.30;;;;;;5001646;28;20726;-54
2023/08/21 11:39:30;;;;;;;9.07;8.18;;;28.60;70.40;;;;;;5002025;28;20444;-55
2023/08/21 11:41:59;;;;;;;9.45;8.55;;;28.60;70.20;;;;;;5003862;28;20029;-55
2023/08/21 11:44:25;;;;;;;9.57;8.40;;;28.60;70.50;;;;;;5001392;28;20548;-55
2023/08/21 11:46:52;;;;;;;9.20;8.30;;;28.60;70.80;;;;;;4999145;28;20029;-55
2023/08/21 11:49:19;;;;;;;8.88;8.15;;;28.60;70.70;;;;;;5010261;28;20433;-55
2023/08/21 11:51:46;;;;;;;10.07;8.73;;;28.60;70.50;;;;;;5006555;28;20472;-54
2023/08/21 11:54:12;;;;;;;9.48;8.68;;;28.60;70.60;;;;;;5008555;28;20040;-55
2023/08/21 11:56:38;;;;;;;9.15;8.35;;;28.60;70.40;;;;;;5004472;28;20413;-54
2023/08/21 11:59:05;;;;;;;9.75;8.82;;;28.60;70.30;;;;;;5002278;28;20029;-55
2023/08/21 12:01:33;;;;;;;10.38;9.38;;;28.60;70.20;;;;;;5005165;28;20091;-55
2023/08/21 12:03:59;;;;;;;9.23;8.43;;;28.60;70.30;;;;;;5007102;28;20026;-55
2023/08/21 12:06:26;;;;;;;9.60;8.55;;;28.60;70.30;;;;;;5007691;28;20037;-54
2023/08/21 12:08:51;;;;;;;8.65;7.72;;;28.60;70.30;;;;;;4998774;28;20496;-55
2023/08/21 12:11:17;;;;;;;10.73;9.05;;;28.60;70.20;;;;;;4999957;28;20117;-54
2023/08/21 12:13:43;;;;;;;8.27;7.50;;;28.60;70.30;;;;;;5007181;28;20053;-56
2023/08/21 12:16:09;;;;;;;8.68;7.88;;;28.60;70.00;;;;;;5003791;28;20065;-55
2023/08/21 12:18:34;;;;;;;8.25;7.47;;;28.60;69.90;;;;;;5001445;28;20026;-55
2023/08/21 12:21:00;;;;;;;9.30;8.40;;;28.60;69.90;;;;;;5002585;28;20038;-55
2023/08/21 12:23:26;;;;;;;9.70;8.20;;;28.60;70.20;;;;;;5003011;28;20507;-54
2023/08/21 12:25:51;;;;;;;12.18;9.25;;;28.60;70.50;;;;;;4997162;28;20137;-55
2023/08/21 12:28:17;;;;;;;9.18;8.38;;;28.60;70.30;;;;;;5000437;28;20037;-55
2023/08/21 12:30:42;;;;;;;8.93;8.13;;;28.60;70.60;;;;;;5000077;28;20068;-55
2023/08/21 12:33:08;;;;;;;9.32;8.43;;;28.60;71.00;;;;;;5007834;28;20774;-56